createdAt,value
2022-09-04T00:00:52.514Z,15.64
2022-09-04T00:01:52.530Z,15.61
2022-09-04T00:02:52.489Z,15.60
2022-09-04T00:03:52.552Z,15.61
2022-09-04T00:04:52.633Z,15.61
2022-09-04T00:05:52.455Z,15.61
2022-09-04T00:06:52.438Z,15.61
2022-09-04T00:07:52.441Z,15.60
2022-09-04T00:08:52.433Z,15.57
2022-09-04T00:09:52.406Z,15.54
2022-09-04T00:10:52.520Z,15.51
2022-09-04T00:11:52.376Z,15.48
2022-09-04T00:12:52.352Z,15.46
2022-09-04T00:13:52.362Z,15.43
2022-09-04T00:14:52.327Z,15.42
2022-09-04T00:15:52.338Z,15.41
2022-09-04T00:16:52.395Z,15.39
2022-09-04T00:17:52.301Z,15.38
2022-09-04T00:18:52.285Z,15.39
2022-09-04T00:19:52.262Z,15.38
2022-09-04T00:20:52.941Z,15.36
2022-09-04T00:21:52.260Z,15.36
2022-09-04T00:22:52.219Z,15.35
2022-09-04T00:23:52.914Z,15.35
2022-09-04T00:24:52.212Z,15.31
2022-09-04T00:25:52.188Z,15.31
2022-09-04T00:26:52.315Z,15.30
2022-09-04T00:27:52.983Z,15.26
2022-09-04T00:28:52.134Z,15.23
2022-09-04T00:29:52.152Z,15.19
2022-09-04T00:30:52.131Z,15.15
2022-09-04T00:31:52.119Z,15.12
2022-09-04T00:32:52.100Z,15.11
2022-09-04T00:33:52.075Z,15.11
2022-09-04T00:34:52.081Z,15.09
2022-09-04T00:35:52.058Z,15.11
2022-09-04T00:36:52.026Z,15.09
2022-09-04T00:37:52.044Z,15.11
2022-09-04T00:38:52.022Z,15.08
2022-09-04T00:39:52.033Z,15.08
2022-09-04T00:40:52.002Z,15.06
2022-09-04T00:41:51.982Z,15.03
2022-09-04T00:42:51.988Z,15.02
2022-09-04T00:43:51.952Z,14.99
2022-09-04T00:44:52.892Z,14.95
2022-09-04T00:45:51.994Z,14.93
2022-09-04T00:46:51.912Z,14.94
2022-09-04T00:47:51.893Z,14.91
2022-09-04T00:48:51.895Z,14.91
2022-09-04T00:49:51.874Z,14.90
2022-09-04T00:50:51.842Z,14.88
2022-09-04T00:51:51.855Z,14.84
2022-09-04T00:52:53.673Z,14.83
2022-09-04T00:53:52.860Z,14.80
2022-09-04T00:54:51.782Z,14.75
2022-09-04T00:55:51.794Z,14.72
2022-09-04T00:56:51.777Z,14.71
2022-09-04T00:57:51.743Z,14.69
2022-09-04T00:58:51.748Z,14.69
2022-09-04T00:59:51.744Z,14.67
2022-09-04T01:00:51.765Z,14.68
2022-09-04T01:01:51.860Z,14.65
2022-09-04T01:02:51.697Z,14.64
2022-09-04T01:03:51.680Z,14.62
2022-09-04T01:04:51.668Z,14.61
2022-09-04T01:05:51.650Z,14.60
2022-09-04T01:06:51.643Z,14.54
2022-09-04T01:07:51.616Z,14.54
2022-09-04T01:08:56.453Z,14.53
2022-09-04T01:09:52.610Z,14.52
2022-09-04T01:10:51.812Z,14.49
2022-09-04T01:11:51.558Z,14.47
2022-09-04T01:12:51.548Z,14.47
2022-09-04T01:13:51.771Z,14.47
2022-09-04T01:14:53.077Z,14.46
2022-09-04T01:15:51.527Z,14.46
2022-09-04T01:16:51.613Z,14.44
2022-09-04T01:17:51.479Z,14.42
2022-09-04T01:18:51.474Z,14.38
2022-09-04T01:19:51.451Z,14.37
2022-09-04T01:20:51.432Z,14.35
2022-09-04T01:21:51.576Z,14.34
2022-09-04T01:22:51.403Z,14.31
2022-09-04T01:23:51.418Z,14.31
2022-09-04T01:24:51.396Z,14.28
2022-09-04T01:25:51.373Z,14.27
2022-09-04T01:26:51.377Z,14.25
2022-09-04T01:27:51.344Z,14.24
2022-09-04T01:28:51.334Z,14.21
2022-09-04T01:29:51.327Z,14.20
2022-09-04T01:30:51.307Z,14.17
2022-09-04T01:31:51.369Z,14.16
2022-09-04T01:32:51.329Z,14.13
2022-09-04T01:33:51.256Z,14.10
2022-09-04T01:34:51.260Z,14.10
2022-09-04T01:35:51.227Z,14.04
2022-09-04T01:36:51.219Z,14.02
2022-09-04T01:37:51.221Z,13.98
2022-09-04T01:38:51.197Z,13.96
2022-09-04T01:39:52.198Z,13.92
2022-09-04T01:40:51.185Z,13.89
2022-09-04T01:41:51.149Z,13.84
2022-09-04T01:42:51.167Z,13.81
2022-09-04T01:43:51.134Z,13.80
2022-09-04T01:44:51.131Z,13.79
2022-09-04T01:45:51.145Z,13.79
2022-09-04T01:46:51.116Z,13.80
2022-09-04T01:47:51.070Z,13.80
2022-09-04T01:48:51.183Z,13.80
2022-09-04T01:49:51.055Z,13.80
2022-09-04T01:50:51.031Z,13.79
2022-09-04T01:51:51.982Z,13.77
2022-09-04T01:52:51.015Z,13.76
2022-09-04T01:53:50.983Z,13.74
2022-09-04T01:54:51.017Z,13.71
2022-09-04T01:55:50.953Z,13.70
2022-09-04T01:56:50.957Z,13.67
2022-09-04T01:57:50.944Z,13.65
2022-09-04T01:58:50.966Z,13.63
2022-09-04T01:59:53.658Z,13.63
2022-09-04T02:00:50.952Z,13.65
2022-09-04T02:01:50.948Z,13.65
2022-09-04T02:02:53.033Z,13.65
2022-09-04T02:03:50.869Z,13.70
2022-09-04T02:04:50.851Z,13.71
2022-09-04T02:05:51.027Z,13.76
2022-09-04T02:06:50.833Z,13.77
2022-09-04T02:07:50.798Z,13.77
2022-09-04T02:08:50.789Z,13.79
2022-09-04T02:09:50.791Z,13.80
2022-09-04T02:10:50.879Z,13.79
2022-09-04T02:11:50.760Z,13.76
2022-09-04T02:12:51.754Z,13.76
2022-09-04T02:13:51.517Z,13.70
2022-09-04T02:14:50.709Z,13.69
2022-09-04T02:15:50.704Z,13.69
2022-09-04T02:16:50.897Z,13.65
2022-09-04T02:17:50.665Z,13.67
2022-09-04T02:18:50.675Z,13.67
2022-09-04T02:19:50.639Z,13.67
2022-09-04T02:20:50.635Z,13.67
2022-09-04T02:21:50.664Z,13.71
2022-09-04T02:22:50.613Z,13.71
2022-09-04T02:23:50.603Z,13.73
2022-09-04T02:24:50.594Z,13.71
2022-09-04T02:25:50.564Z,13.71
2022-09-04T02:26:50.567Z,13.73
2022-09-04T02:27:50.553Z,13.73
2022-09-04T02:28:50.531Z,13.73
2022-09-04T02:29:50.518Z,13.70
2022-09-04T02:30:54.458Z,13.70
2022-09-04T02:31:50.511Z,13.69
2022-09-04T02:32:50.489Z,13.67
2022-09-04T02:33:50.458Z,13.67
2022-09-04T02:34:50.459Z,13.62
2022-09-04T02:35:50.426Z,13.62
2022-09-04T02:36:50.434Z,13.59
2022-09-04T02:37:50.414Z,13.55
2022-09-04T02:38:50.397Z,13.51
2022-09-04T02:39:50.472Z,13.46
2022-09-04T02:40:50.382Z,13.40
2022-09-04T02:41:50.342Z,13.32
2022-09-04T02:42:51.051Z,13.29
2022-09-04T02:43:50.358Z,13.24
2022-09-04T02:44:51.269Z,13.21
2022-09-04T02:45:50.311Z,13.20
2022-09-04T02:46:50.374Z,13.18
2022-09-04T02:47:50.271Z,13.18
2022-09-04T02:48:50.265Z,13.15
2022-09-04T02:49:50.294Z,13.17
2022-09-04T02:50:50.253Z,13.17
2022-09-04T02:51:50.233Z,13.18
2022-09-04T02:52:50.215Z,13.17
2022-09-04T02:53:50.194Z,13.17
2022-09-04T02:54:50.195Z,13.17
2022-09-04T02:55:50.162Z,13.17
2022-09-04T02:56:50.159Z,13.12
2022-09-04T02:57:50.147Z,13.12
2022-09-04T02:58:50.125Z,13.11
2022-09-04T02:59:50.127Z,13.11
2022-09-04T03:00:51.121Z,13.12
2022-09-04T03:01:50.561Z,13.12
2022-09-04T03:02:51.715Z,13.14
2022-09-04T03:03:50.952Z,13.12
2022-09-04T03:04:50.146Z,13.15
2022-09-04T03:05:50.726Z,13.17
2022-09-04T03:06:50.041Z,13.17
2022-09-04T03:07:49.998Z,13.17
2022-09-04T03:08:50.000Z,13.18
2022-09-04T03:09:49.991Z,13.17
2022-09-04T03:10:49.970Z,13.14
2022-09-04T03:11:49.971Z,13.14
2022-09-04T03:12:50.902Z,13.12
2022-09-04T03:13:49.921Z,13.12
2022-09-04T03:14:49.930Z,13.14
2022-09-04T03:15:49.912Z,13.14
2022-09-04T03:16:49.999Z,13.14
2022-09-04T03:17:49.891Z,13.12
2022-09-04T03:18:49.874Z,13.11
2022-09-04T03:19:49.842Z,13.09
2022-09-04T03:20:50.795Z,13.06
2022-09-04T03:21:49.834Z,13.04
2022-09-04T03:22:49.853Z,13.06
2022-09-04T03:23:49.807Z,13.06
2022-09-04T03:24:49.795Z,13.06
2022-09-04T03:25:49.762Z,13.03
2022-09-04T03:26:50.451Z,13.02
2022-09-04T03:27:49.740Z,13.02
2022-09-04T03:28:49.733Z,13.02
2022-09-04T03:29:49.728Z,12.99
2022-09-04T03:30:49.703Z,12.97
2022-09-04T03:31:49.793Z,12.96
2022-09-04T03:32:49.695Z,12.96
2022-09-04T03:33:49.662Z,12.92
2022-09-04T03:34:49.658Z,12.87
2022-09-04T03:35:49.625Z,12.88
2022-09-04T03:36:49.626Z,12.89
2022-09-04T03:37:49.617Z,12.89
2022-09-04T03:38:49.633Z,12.89
2022-09-04T03:39:49.690Z,12.87
2022-09-04T03:40:49.580Z,12.85
2022-09-04T03:41:49.565Z,12.85
2022-09-04T03:42:49.560Z,12.85
2022-09-04T03:43:49.527Z,12.85
2022-09-04T03:44:52.222Z,12.85
2022-09-04T03:45:49.521Z,12.84
2022-09-04T03:46:49.543Z,12.82
2022-09-04T03:47:49.484Z,12.82
2022-09-04T03:48:49.485Z,12.81
2022-09-04T03:49:49.486Z,12.79
2022-09-04T03:50:49.430Z,12.81
2022-09-04T03:51:49.657Z,12.81
2022-09-04T03:52:49.429Z,12.79
2022-09-04T03:53:49.390Z,12.78
2022-09-04T03:54:49.395Z,12.75
2022-09-04T03:55:49.371Z,12.74
2022-09-04T03:56:49.352Z,12.70
2022-09-04T03:57:49.346Z,12.70
2022-09-04T03:58:49.333Z,12.69
2022-09-04T03:59:50.017Z,12.67
2022-09-04T04:00:49.503Z,12.66
2022-09-04T04:01:50.103Z,12.66
2022-09-04T04:02:49.323Z,12.66
2022-09-04T04:03:49.253Z,12.64
2022-09-04T04:04:49.251Z,12.64
2022-09-04T04:05:49.251Z,12.64
2022-09-04T04:06:49.269Z,12.60
2022-09-04T04:07:49.209Z,12.57
2022-09-04T04:08:49.195Z,12.54
2022-09-04T04:09:49.189Z,12.51
2022-09-04T04:10:49.170Z,12.45
2022-09-04T04:11:49.160Z,12.41
2022-09-04T04:12:49.987Z,12.38
2022-09-04T04:13:49.123Z,12.34
2022-09-04T04:14:49.129Z,12.31
2022-09-04T04:15:49.139Z,12.31
2022-09-04T04:16:55.958Z,12.31
2022-09-04T04:17:50.192Z,12.34
2022-09-04T04:18:49.059Z,12.34
2022-09-04T04:19:49.064Z,12.38
2022-09-04T04:20:49.043Z,12.38
2022-09-04T04:21:49.010Z,12.38
2022-09-04T04:22:49.013Z,12.37
2022-09-04T04:23:49.033Z,12.34
2022-09-04T04:24:48.992Z,12.31
2022-09-04T04:25:52.201Z,12.30
2022-09-04T04:26:54.051Z,12.27
2022-09-04T04:27:49.930Z,12.27
2022-09-04T04:28:48.931Z,12.29
2022-09-04T04:29:49.035Z,12.29
2022-09-04T04:30:48.901Z,12.29
2022-09-04T04:31:48.931Z,12.29
2022-09-04T04:32:48.886Z,12.27
2022-09-04T04:33:48.852Z,12.26
2022-09-04T04:34:49.546Z,12.26
2022-09-04T04:35:49.338Z,12.26
2022-09-04T04:36:48.813Z,12.26
2022-09-04T04:37:48.812Z,12.26
2022-09-04T04:38:48.795Z,12.24
2022-09-04T04:39:48.848Z,12.26
2022-09-04T04:40:48.779Z,12.24
2022-09-04T04:41:49.825Z,12.26
2022-09-04T04:42:48.749Z,12.26
2022-09-04T04:43:48.727Z,12.26
2022-09-04T04:44:48.707Z,12.26
2022-09-04T04:45:49.390Z,12.24
2022-09-04T04:46:49.670Z,12.24
2022-09-04T04:47:48.793Z,12.24
2022-09-04T04:48:48.670Z,12.26
2022-09-04T04:49:48.638Z,12.24
2022-09-04T04:50:48.641Z,12.27
2022-09-04T04:51:48.609Z,12.27
2022-09-04T04:52:48.599Z,12.27
2022-09-04T04:53:48.623Z,12.27
2022-09-04T04:54:48.592Z,12.29
2022-09-04T04:55:48.560Z,12.29
2022-09-04T04:56:48.547Z,12.30
2022-09-04T04:57:48.543Z,12.31
2022-09-04T04:58:48.529Z,12.31
2022-09-04T04:59:48.643Z,12.30
2022-09-04T05:00:48.504Z,12.30
2022-09-04T05:01:48.631Z,12.30
2022-09-04T05:02:48.552Z,12.30
2022-09-04T05:03:48.442Z,12.27
2022-09-04T05:04:48.442Z,12.27
2022-09-04T05:05:48.438Z,12.27
2022-09-04T05:06:48.411Z,12.26
2022-09-04T05:07:48.407Z,12.26
2022-09-04T05:08:48.397Z,12.23
2022-09-04T05:09:48.365Z,12.23
2022-09-04T05:10:48.364Z,12.23
2022-09-04T05:11:48.363Z,12.20
2022-09-04T05:12:48.337Z,12.20
2022-09-04T05:13:48.471Z,12.20
2022-09-04T05:14:48.320Z,12.19
2022-09-04T05:16:08.067Z,12.16
2022-09-04T05:16:53.445Z,12.15
2022-09-04T05:17:49.274Z,12.15
2022-09-04T05:18:48.246Z,12.15
2022-09-04T05:19:48.240Z,12.15
2022-09-04T05:20:48.234Z,12.15
2022-09-04T05:21:48.229Z,12.16
2022-09-04T05:22:48.211Z,12.15
2022-09-04T05:23:48.180Z,12.16
2022-09-04T05:24:48.167Z,12.16
2022-09-04T05:25:48.164Z,12.16
2022-09-04T05:26:48.165Z,12.19
2022-09-04T05:27:48.144Z,12.20
2022-09-04T05:28:48.121Z,12.20
2022-09-04T05:29:48.114Z,12.20
2022-09-04T05:30:48.160Z,12.23
2022-09-04T05:31:48.086Z,12.24
2022-09-04T05:32:48.083Z,12.26
2022-09-04T05:33:48.095Z,12.27
2022-09-04T05:34:48.160Z,12.27
2022-09-04T05:35:48.036Z,12.29
2022-09-04T05:36:48.011Z,12.31
2022-09-04T05:37:48.046Z,12.33
2022-09-04T05:38:48.003Z,12.37
2022-09-04T05:39:48.028Z,12.38
2022-09-04T05:40:47.996Z,12.39
2022-09-04T05:41:47.953Z,12.42
2022-09-04T05:42:47.936Z,12.44
2022-09-04T05:43:48.064Z,12.48
2022-09-04T05:44:47.927Z,12.49
2022-09-04T05:45:47.895Z,12.56
2022-09-04T05:46:51.883Z,12.59
2022-09-04T05:47:47.872Z,12.63
2022-09-04T05:48:47.846Z,12.66
2022-09-04T05:49:47.870Z,12.70
2022-09-04T05:50:47.822Z,12.74
2022-09-04T05:51:47.830Z,12.78
2022-09-04T05:52:47.812Z,12.82
2022-09-04T05:53:47.797Z,12.88
2022-09-04T05:54:47.921Z,12.92
2022-09-04T05:55:47.769Z,12.96
2022-09-04T05:56:47.740Z,13.00
2022-09-04T05:57:47.755Z,13.03
2022-09-04T05:58:47.721Z,13.09
2022-09-04T05:59:47.718Z,13.12
2022-09-04T06:00:48.665Z,13.17
2022-09-04T06:01:51.820Z,13.24
2022-09-04T06:02:47.753Z,13.25
2022-09-04T06:03:47.674Z,13.30
2022-09-04T06:04:47.654Z,13.36
2022-09-04T06:05:47.740Z,13.38
2022-09-04T06:06:47.623Z,13.41
2022-09-04T06:07:47.612Z,13.46
2022-09-04T06:08:47.571Z,13.49
2022-09-04T06:09:47.595Z,13.55
2022-09-04T06:10:48.522Z,13.58
2022-09-04T06:11:47.565Z,13.65
2022-09-04T06:12:47.558Z,13.69
2022-09-04T06:13:47.526Z,13.71
2022-09-04T06:14:47.502Z,13.77
2022-09-04T06:15:48.465Z,13.80
2022-09-04T06:16:47.520Z,13.81
2022-09-04T06:17:47.474Z,13.84
2022-09-04T06:18:47.470Z,13.88
2022-09-04T06:19:47.443Z,13.91
2022-09-04T06:20:47.425Z,13.96
2022-09-04T06:21:47.429Z,14.01
2022-09-04T06:22:47.881Z,14.06
2022-09-04T06:23:47.423Z,14.10
2022-09-04T06:24:47.380Z,14.14
2022-09-04T06:25:47.357Z,14.19
2022-09-04T06:26:47.353Z,14.25
2022-09-04T06:27:48.278Z,14.31
2022-09-04T06:28:47.452Z,14.39
2022-09-04T06:29:48.272Z,14.50
2022-09-04T06:30:47.340Z,14.60
2022-09-04T06:31:47.288Z,14.69
2022-09-04T06:32:49.129Z,14.81
2022-09-04T06:33:47.283Z,14.93
2022-09-04T06:34:47.245Z,15.02
2022-09-04T06:35:47.243Z,15.11
2022-09-04T06:36:47.216Z,15.20
2022-09-04T06:37:47.209Z,15.30
2022-09-04T06:38:47.203Z,15.42
2022-09-04T06:39:47.217Z,15.54
2022-09-04T06:40:47.163Z,15.64
2022-09-04T06:41:47.156Z,15.75
2022-09-04T06:42:47.131Z,15.86
2022-09-04T06:43:47.146Z,15.99
2022-09-04T06:44:47.166Z,16.12
2022-09-04T06:45:47.102Z,16.22
2022-09-04T06:46:47.157Z,16.37
2022-09-04T06:47:47.063Z,16.50
2022-09-04T06:48:47.062Z,16.60
2022-09-04T06:49:47.058Z,16.63
2022-09-04T06:50:47.256Z,16.68
2022-09-04T06:51:47.030Z,16.74
2022-09-04T06:52:47.021Z,16.75
2022-09-04T06:53:46.995Z,16.83
2022-09-04T06:54:46.989Z,16.88
2022-09-04T06:55:47.097Z,16.95
2022-09-04T06:56:46.949Z,17.00
2022-09-04T06:57:46.961Z,17.08
2022-09-04T06:58:47.868Z,17.17
2022-09-04T06:59:46.947Z,17.22
2022-09-04T07:00:47.642Z,17.32
2022-09-04T07:01:47.176Z,17.46
2022-09-04T07:02:46.991Z,17.53
2022-09-04T07:03:46.869Z,17.67
2022-09-04T07:04:46.853Z,17.78
2022-09-04T07:05:46.832Z,17.87
2022-09-04T07:06:46.839Z,17.89
2022-09-04T07:07:46.833Z,17.95
2022-09-04T07:08:46.784Z,18.03
2022-09-04T07:09:46.785Z,18.12
2022-09-04T07:10:46.759Z,18.15
2022-09-04T07:11:46.751Z,18.25
2022-09-04T07:12:46.735Z,18.36
2022-09-04T07:13:46.833Z,18.49
2022-09-04T07:14:46.707Z,18.57
2022-09-04T07:15:46.734Z,18.70
2022-09-04T07:16:46.684Z,18.82
2022-09-04T07:17:46.676Z,18.95
2022-09-04T07:18:46.658Z,19.02
2022-09-04T07:19:46.634Z,19.05
2022-09-04T07:20:47.317Z,19.10
2022-09-04T07:21:46.631Z,19.13
2022-09-04T07:22:46.588Z,19.17
2022-09-04T07:23:46.608Z,19.21
2022-09-04T07:24:47.578Z,19.31
2022-09-04T07:25:46.567Z,19.33
2022-09-04T07:26:46.552Z,19.40
2022-09-04T07:27:46.544Z,19.54
2022-09-04T07:28:46.508Z,19.69
2022-09-04T07:29:46.523Z,19.79
2022-09-04T07:30:46.517Z,19.83
2022-09-04T07:31:46.578Z,19.90
2022-09-04T07:32:46.481Z,19.91
2022-09-04T07:33:46.452Z,19.91
2022-09-04T07:34:46.434Z,19.91
2022-09-04T07:35:46.443Z,20.02
2022-09-04T07:36:46.545Z,20.08
2022-09-04T07:37:46.413Z,20.06
2022-09-04T07:38:50.774Z,20.10
2022-09-04T07:39:47.434Z,20.06
2022-09-04T07:40:46.362Z,19.98
2022-09-04T07:41:46.382Z,19.97
2022-09-04T07:42:46.341Z,20.03
2022-09-04T07:43:46.335Z,20.12
2022-09-04T07:44:46.324Z,20.16
2022-09-04T07:45:46.327Z,20.28
2022-09-04T07:46:46.297Z,20.49
2022-09-04T07:47:46.279Z,20.59
2022-09-04T07:48:47.204Z,20.61
2022-09-04T07:49:46.263Z,20.83
2022-09-04T07:50:46.225Z,20.93
2022-09-04T07:51:46.240Z,21.11
2022-09-04T07:52:46.330Z,21.30
2022-09-04T07:53:46.186Z,21.42
2022-09-04T07:54:46.189Z,21.36
2022-09-04T07:55:46.157Z,21.38
2022-09-04T07:56:46.148Z,21.30
2022-09-04T07:57:46.160Z,21.21
2022-09-04T07:58:46.130Z,21.16
2022-09-04T07:59:46.122Z,21.27
2022-09-04T08:00:46.094Z,21.50
2022-09-04T08:01:46.115Z,21.66
2022-09-04T08:02:46.075Z,21.78
2022-09-04T08:03:54.443Z,21.95
2022-09-04T08:04:47.096Z,22.14
2022-09-04T08:05:46.046Z,22.06
2022-09-04T08:06:46.025Z,22.14
2022-09-04T08:07:45.992Z,22.19
2022-09-04T08:08:45.988Z,22.23
2022-09-04T08:09:47.067Z,22.20
2022-09-04T08:10:45.953Z,22.32
2022-09-04T08:11:45.970Z,22.60
2022-09-04T08:12:45.936Z,22.71
2022-09-04T08:13:45.918Z,22.92
2022-09-04T08:14:45.938Z,22.97
2022-09-04T08:15:45.989Z,23.12
2022-09-04T08:16:45.867Z,23.42
2022-09-04T08:17:45.881Z,23.52
2022-09-04T08:18:45.862Z,23.64
2022-09-04T08:19:45.851Z,23.65
2022-09-04T08:20:45.967Z,23.77
2022-09-04T08:21:45.828Z,23.92
2022-09-04T08:22:45.809Z,24.04
2022-09-04T08:23:45.808Z,24.13
2022-09-04T08:24:45.781Z,24.22
2022-09-04T08:25:46.709Z,24.34
2022-09-04T08:26:45.937Z,24.71
2022-09-04T08:27:45.737Z,24.95
2022-09-04T08:28:46.622Z,25.10
2022-09-04T08:29:45.734Z,25.28
2022-09-04T08:30:46.687Z,25.30
2022-09-04T08:31:45.698Z,25.07
2022-09-04T08:32:45.676Z,25.16
2022-09-04T08:33:47.324Z,25.25
2022-09-04T08:34:45.650Z,25.10
2022-09-04T08:35:46.583Z,25.13
2022-09-04T08:36:45.605Z,25.22
2022-09-04T08:37:45.636Z,25.27
2022-09-04T08:38:45.616Z,25.42
2022-09-04T08:39:45.611Z,25.54
2022-09-04T08:40:45.575Z,25.84
2022-09-04T08:41:45.562Z,25.74
2022-09-04T08:42:46.218Z,25.87
2022-09-04T08:43:45.544Z,25.74
2022-09-04T08:44:45.520Z,25.68
2022-09-04T08:45:45.486Z,25.77
2022-09-04T08:46:45.510Z,25.79
2022-09-04T08:47:45.466Z,25.83
2022-09-04T08:48:45.567Z,25.91
2022-09-04T08:49:45.463Z,25.86
2022-09-04T08:50:45.420Z,25.84
2022-09-04T08:51:45.433Z,25.87
2022-09-04T08:52:45.412Z,26.02
2022-09-04T08:53:45.401Z,26.09
2022-09-04T08:54:45.514Z,26.11
2022-09-04T08:55:45.367Z,26.17
2022-09-04T08:56:45.343Z,26.24
2022-09-04T08:57:45.346Z,26.31
2022-09-04T08:58:47.913Z,26.46
2022-09-04T08:59:45.316Z,26.69
2022-09-04T09:00:45.326Z,26.79
2022-09-04T09:01:45.341Z,26.58
2022-09-04T09:02:45.376Z,26.59
2022-09-04T09:03:45.966Z,26.58
2022-09-04T09:04:45.243Z,26.76
2022-09-04T09:05:45.287Z,26.68
2022-09-04T09:06:45.220Z,26.64
2022-09-04T09:07:45.212Z,26.68
2022-09-04T09:08:45.192Z,26.91
2022-09-04T09:09:45.169Z,27.11
2022-09-04T09:10:45.168Z,27.17
2022-09-04T09:11:45.321Z,27.35
2022-09-04T09:12:45.153Z,27.36
2022-09-04T09:13:45.139Z,27.21
2022-09-04T09:14:45.113Z,27.14
2022-09-04T09:15:45.099Z,27.14
2022-09-04T09:16:46.063Z,27.26
2022-09-04T09:17:45.324Z,27.50
2022-09-04T09:18:45.040Z,27.59
2022-09-04T09:19:45.057Z,27.57
2022-09-04T09:20:45.035Z,27.41
2022-09-04T09:21:45.725Z,27.69
2022-09-04T09:22:45.050Z,27.88
2022-09-04T09:23:45.012Z,28.09
2022-09-04T09:24:45.690Z,28.28
2022-09-04T09:25:44.973Z,28.41
2022-09-04T09:26:44.957Z,28.36
2022-09-04T09:27:44.943Z,28.26
2022-09-04T09:28:44.906Z,28.35
2022-09-04T09:29:44.928Z,28.48
2022-09-04T09:30:44.974Z,28.73
2022-09-04T09:31:44.909Z,28.84
2022-09-04T09:32:45.114Z,28.66
2022-09-04T09:33:44.859Z,28.47
2022-09-04T09:34:44.880Z,28.50
2022-09-04T09:35:44.837Z,28.35
2022-09-04T09:36:44.824Z,28.16
2022-09-04T09:37:44.823Z,28.21
2022-09-04T09:38:44.785Z,28.35
2022-09-04T09:39:44.833Z,28.38
2022-09-04T09:40:44.765Z,28.59
2022-09-04T09:41:44.773Z,28.85
2022-09-04T09:42:44.740Z,29.10
2022-09-04T09:43:45.443Z,29.26
2022-09-04T09:44:45.634Z,29.41
2022-09-04T09:45:44.915Z,29.71
2022-09-04T09:46:44.684Z,29.66
2022-09-04T09:47:44.671Z,29.65
2022-09-04T09:48:44.652Z,29.72
2022-09-04T09:49:44.653Z,29.94
2022-09-04T09:50:45.595Z,30.21
2022-09-04T09:51:44.756Z,30.27
2022-09-04T09:52:44.617Z,30.57
2022-09-04T09:53:47.306Z,30.50
2022-09-04T09:54:44.594Z,30.59
2022-09-04T09:55:44.580Z,30.29
2022-09-04T09:56:46.705Z,29.81
2022-09-04T09:57:45.681Z,29.57
2022-09-04T09:58:44.544Z,29.63
2022-09-04T09:59:44.531Z,29.57
2022-09-04T10:00:45.229Z,29.44
2022-09-04T10:01:44.517Z,29.41
2022-09-04T10:02:45.261Z,29.50
2022-09-04T10:03:44.470Z,29.74
2022-09-04T10:04:44.449Z,29.82
2022-09-04T10:05:44.497Z,29.90
2022-09-04T10:06:45.137Z,30.29
2022-09-04T10:07:44.436Z,30.40
2022-09-04T10:08:44.437Z,30.40
2022-09-04T10:09:44.394Z,30.38
2022-09-04T10:10:45.097Z,30.53
2022-09-04T10:11:44.380Z,30.34
2022-09-04T10:12:44.362Z,30.24
2022-09-04T10:13:44.361Z,30.19
2022-09-04T10:14:44.355Z,30.52
2022-09-04T10:15:44.319Z,30.91
2022-09-04T10:16:44.421Z,31.09
2022-09-04T10:17:44.291Z,30.98
2022-09-04T10:18:44.266Z,31.08
2022-09-04T10:19:44.304Z,31.15
2022-09-04T10:20:44.260Z,30.64
2022-09-04T10:21:44.237Z,30.49
2022-09-04T10:22:44.241Z,30.40
2022-09-04T10:23:44.196Z,30.29
2022-09-04T10:24:44.206Z,30.38
2022-09-04T10:25:44.193Z,30.72
2022-09-04T10:26:44.178Z,31.04
2022-09-04T10:27:44.256Z,30.96
2022-09-04T10:28:44.154Z,30.49
2022-09-04T10:29:44.129Z,30.27
2022-09-04T10:30:44.187Z,30.24
2022-09-04T10:31:44.116Z,30.26
2022-09-04T10:32:44.107Z,30.65
2022-09-04T10:33:44.073Z,30.78
2022-09-04T10:34:44.077Z,30.98
2022-09-04T10:35:44.058Z,31.28
2022-09-04T10:36:45.105Z,31.38
2022-09-04T10:37:44.050Z,30.99
2022-09-04T10:38:44.005Z,30.91
2022-09-04T10:39:44.069Z,31.09
2022-09-04T10:40:47.041Z,31.08
2022-09-04T10:41:43.966Z,31.31
2022-09-04T10:42:44.100Z,31.35
2022-09-04T10:43:43.937Z,31.20
2022-09-04T10:44:43.944Z,31.26
2022-09-04T10:45:43.986Z,31.24
2022-09-04T10:46:43.923Z,31.55
2022-09-04T10:47:43.890Z,31.88
2022-09-04T10:48:43.898Z,31.48
2022-09-04T10:49:43.876Z,31.23
2022-09-04T10:50:43.848Z,30.80
2022-09-04T10:51:43.855Z,30.76
2022-09-04T10:52:43.847Z,30.53
2022-09-04T10:53:43.840Z,30.47
2022-09-04T10:54:43.815Z,30.46
2022-09-04T10:55:44.488Z,30.50
2022-09-04T10:56:43.781Z,30.89
2022-09-04T10:57:43.777Z,31.36
2022-09-04T10:58:43.752Z,31.77
2022-09-04T10:59:43.868Z,31.92
2022-09-04T11:00:43.760Z,31.72
2022-09-04T11:01:43.694Z,31.49
2022-09-04T11:02:43.745Z,31.35
2022-09-04T11:03:43.685Z,31.27
2022-09-04T11:04:43.667Z,30.80
2022-09-04T11:05:43.681Z,30.78
2022-09-04T11:06:43.647Z,30.57
2022-09-04T11:07:43.652Z,30.57
2022-09-04T11:08:43.641Z,30.87
2022-09-04T11:09:43.607Z,31.20
2022-09-04T11:10:43.749Z,31.18
2022-09-04T11:11:43.562Z,31.13
2022-09-04T11:12:44.277Z,31.11
2022-09-04T11:13:46.005Z,30.72
2022-09-04T11:14:44.260Z,30.98
2022-09-04T11:15:43.525Z,31.30
2022-09-04T11:16:43.581Z,31.38
2022-09-04T11:17:43.493Z,31.61
2022-09-04T11:18:43.493Z,31.57
2022-09-04T11:19:43.482Z,31.73
2022-09-04T11:20:43.475Z,32.03
2022-09-04T11:21:43.485Z,32.64
2022-09-04T11:22:43.449Z,32.81
2022-09-04T11:23:43.415Z,32.81
2022-09-04T11:24:43.417Z,32.66
2022-09-04T11:25:43.410Z,32.24
2022-09-04T11:26:43.402Z,32.02
2022-09-04T11:27:43.392Z,32.37
2022-09-04T11:28:43.370Z,32.74
2022-09-04T11:29:43.357Z,32.47
2022-09-04T11:30:48.150Z,32.27
2022-09-04T11:31:44.359Z,32.27
2022-09-04T11:32:43.432Z,32.10
2022-09-04T11:33:43.295Z,32.14
2022-09-04T11:34:43.291Z,31.98
2022-09-04T11:35:43.253Z,31.91
2022-09-04T11:36:43.250Z,31.68
2022-09-04T11:37:43.237Z,31.85
2022-09-04T11:38:43.231Z,31.82
2022-09-04T11:39:43.308Z,31.82
2022-09-04T11:40:43.206Z,32.17
2022-09-04T11:41:43.180Z,32.49
2022-09-04T11:42:44.132Z,32.33
2022-09-04T11:43:43.174Z,32.35
2022-09-04T11:44:44.096Z,32.51
2022-09-04T11:45:43.176Z,32.59
2022-09-04T11:46:43.117Z,32.73
2022-09-04T11:47:43.119Z,32.55
2022-09-04T11:48:43.109Z,32.40
2022-09-04T11:49:43.188Z,32.58
2022-09-04T11:50:43.062Z,32.55
2022-09-04T11:51:43.063Z,32.40
2022-09-04T11:52:43.052Z,32.54
2022-09-04T11:53:43.021Z,32.67
2022-09-04T11:54:43.032Z,32.77
2022-09-04T11:55:43.005Z,32.77
2022-09-04T11:56:42.989Z,32.80
2022-09-04T11:57:42.986Z,32.40
2022-09-04T11:58:42.962Z,32.20
2022-09-04T11:59:42.955Z,32.07
2022-09-04T12:00:42.989Z,31.99
2022-09-04T12:01:47.536Z,32.03
2022-09-04T12:02:44.615Z,32.36
2022-09-04T12:03:42.916Z,32.39
2022-09-04T12:04:42.885Z,32.47
2022-09-04T12:05:42.890Z,32.74
2022-09-04T12:06:42.907Z,32.80
2022-09-04T12:07:43.515Z,32.74
2022-09-04T12:08:42.849Z,32.39
2022-09-04T12:09:42.823Z,31.72
2022-09-04T12:10:42.835Z,31.09
2022-09-04T12:11:42.809Z,30.52
2022-09-04T12:12:42.908Z,30.05
2022-09-04T12:13:42.794Z,29.84
2022-09-04T12:14:42.768Z,29.74
2022-09-04T12:15:42.763Z,29.43
2022-09-04T12:16:44.611Z,29.23
2022-09-04T12:17:42.731Z,29.20
2022-09-04T12:18:42.835Z,29.16
2022-09-04T12:19:42.693Z,29.31
2022-09-04T12:20:43.642Z,29.57
2022-09-04T12:21:42.696Z,29.79
2022-09-04T12:22:42.685Z,29.82
2022-09-04T12:23:42.643Z,29.75
2022-09-04T12:24:42.751Z,29.68
2022-09-04T12:25:42.641Z,29.63
2022-09-04T12:26:51.308Z,29.53
2022-09-04T12:27:43.608Z,29.41
2022-09-04T12:28:42.601Z,29.38
2022-09-04T12:29:42.581Z,29.18
2022-09-04T12:30:42.690Z,29.03
2022-09-04T12:31:42.560Z,29.03
2022-09-04T12:32:42.537Z,28.95
2022-09-04T12:33:42.544Z,28.90
2022-09-04T12:34:42.511Z,28.77
2022-09-04T12:35:42.502Z,28.53
2022-09-04T12:36:42.502Z,28.58
2022-09-04T12:37:42.472Z,28.69
2022-09-04T12:38:42.467Z,28.78
2022-09-04T12:39:42.484Z,28.88
2022-09-04T12:40:42.445Z,28.96
2022-09-04T12:41:44.861Z,28.97
2022-09-04T12:42:43.426Z,29.10
2022-09-04T12:43:42.393Z,29.11
2022-09-04T12:44:42.374Z,29.07
2022-09-04T12:45:42.416Z,29.20
2022-09-04T12:46:42.357Z,29.41
2022-09-04T12:47:42.401Z,29.70
2022-09-04T12:48:42.339Z,29.92
2022-09-04T12:49:42.309Z,30.18
2022-09-04T12:50:42.320Z,30.49
2022-09-04T12:51:43.247Z,30.84
2022-09-04T12:52:42.276Z,31.45